Terminal Aerodrome Forecast
Issued by NWS

Home | Current Version | Previous Version | Text Only | Print | Product List | Glossary On
Versions: 1 2 3 4 5 6 7 8 9 10 11 12 13 14 15 16 17 18 19
000
FTUS41 KCAR 301000 AAB
TAFHUL
TAF AMD
KHUL 301005Z 3010/3106 00000KT P6SM SCT150
     FM301400 VRB03KT P6SM SCT035
     FM310500 00000KT P6SM SCT250=

USA.gov is the U.S. government's official web portal to all federal, state and local government web resources and services.